Time;durP1;ratioP1;P1;durP2;ratioP2;P2;SDS_P1;SDS_P2;PMS_P1;PMS_P2;Temp;Humidity;BMP_temperature;BMP_pressure;BME280_temperature;BME280_humidity;BME280_pressure;Samples;Min_cycle;Max_cycle;Signal;HPM_P1;HPM_P2
2022/09/28 00:01:48;;;;;;;0.10;0.10;;;;;;;;;;7397775;19;20013;-81
2022/09/28 00:04:13;;;;;;;0.30;0.15;;;;;;;;;;7396548;19;20002;-81
2022/09/28 00:06:38;;;;;;;0.15;0.15;;;;;;;;;;7393846;19;19991;-82
2022/09/28 00:09:04;;;;;;;0.10;0.10;;;;;;;;;;7391737;19;20335;-82
2022/09/28 00:11:29;;;;;;;0.20;0.20;;;;;;;;;;7392215;19;20009;-82
2022/09/28 00:13:58;;;;;;;0.45;0.10;;;;;;;;;;7393455;19;20007;-81
2022/09/28 00:16:27;;;;;;;0.40;0.30;;;;;;;;;;7397220;19;20027;-82
2022/09/28 00:18:53;;;;;;;0.43;0.10;;;;;;;;;;7392858;19;20002;-82
2022/09/28 00:21:21;;;;;;;0.45;0.10;;;;;;;;;;7395722;19;20086;-82
2022/09/28 00:26:34;;;;;;;0.38;0.30;;;;;;;;;;7396256;19;20017;-83
2022/09/28 00:29:01;;;;;;;0.17;0.10;;;;;;;;;;7393453;19;20474;-83
2022/09/28 00:31:28;;;;;;;0.20;0.20;;;;;;;;;;7397093;19;20007;-83
2022/09/28 00:33:55;;;;;;;0.10;0.10;;;;;;;;;;7398548;19;20095;-83
2022/09/28 00:36:21;;;;;;;0.63;0.35;;;;;;;;;;7395886;19;20007;-83
2022/09/28 00:38:47;;;;;;;0.52;0.20;;;;;;;;;;7395486;19;20031;-83
2022/09/28 00:41:12;;;;;;;0.40;0.30;;;;;;;;;;7393458;19;20007;-83
2022/09/28 00:43:37;;;;;;;2.45;0.20;;;;;;;;;;7394536;19;20121;-84
2022/09/28 00:46:08;;;;;;;1.13;0.20;;;;;;;;;;7395634;19;20435;-83
2022/09/28 00:48:38;;;;;;;0.00;0.00;;;;;;;;;;7393972;19;20017;-83
2022/09/28 00:51:08;;;;;;;1.00;0.45;;;;;;;;;;7394155;19;20002;-83
2022/09/28 00:53:37;;;;;;;0.13;0.10;;;;;;;;;;7393494;19;20384;-82
2022/09/28 00:56:11;;;;;;;0.30;0.30;;;;;;;;;;7394024;19;20006;-82
2022/09/28 00:58:48;;;;;;;1.90;0.20;;;;;;;;;;7390163;19;20007;-82
2022/09/28 01:01:14;;;;;;;0.28;0.28;;;;;;;;;;7399445;19;20495;-82
2022/09/28 01:03:44;;;;;;;0.17;0.10;;;;;;;;;;7394811;19;20006;-82
2022/09/28 01:06:13;;;;;;;1.38;0.50;;;;;;;;;;7393702;19;20018;-82
2022/09/28 01:08:39;;;;;;;2.42;0.40;;;;;;;;;;7391175;19;20018;-81
2022/09/28 01:11:05;;;;;;;0.70;0.32;;;;;;;;;;7391475;19;20031;-82
2022/09/28 01:13:31;;;;;;;0.40;0.20;;;;;;;;;;7393221;19;20029;-82
2022/09/28 01:16:31;;;;;;;1.67;0.25;;;;;;;;;;7392050;19;20066;-83
2022/09/28 01:19:27;;;;;;;0.30;0.20;;;;;;;;;;7387658;19;20006;-82
2022/09/28 01:22:26;;;;;;;0.55;0.22;;;;;;;;;;7393305;19;20016;-82
2022/09/28 01:24:54;;;;;;;0.20;0.20;;;;;;;;;;7395707;19;20033;-82
2022/09/28 01:27:43;;;;;;;0.47;0.20;;;;;;;;;;7392022;19;20025;-82
2022/09/28 01:30:13;;;;;;;1.40;0.17;;;;;;;;;;7394381;19;20324;-82
2022/09/28 01:32:54;;;;;;;0.17;0.17;;;;;;;;;;7394948;19;20002;-82
2022/09/28 01:35:32;;;;;;;0.47;0.13;;;;;;;;;;7387550;19;20021;-82
2022/09/28 01:38:27;;;;;;;0.22;0.10;;;;;;;;;;7391010;19;20347;-82
2022/09/28 01:40:53;;;;;;;0.05;0.05;;;;;;;;;;7391054;19;20077;-82
2022/09/28 01:43:24;;;;;;;0.28;0.10;;;;;;;;;;7394088;19;19995;-83
2022/09/28 01:45:54;;;;;;;0.82;0.28;;;;;;;;;;7392802;19;20011;-86
2022/09/28 01:48:31;;;;;;;1.45;0.20;;;;;;;;;;7400232;19;19995;-87
2022/09/28 01:50:59;;;;;;;0.70;0.20;;;;;;;;;;7398348;19;20028;-86
2022/09/28 01:53:31;;;;;;;0.47;0.15;;;;;;;;;;7402480;19;20006;-87
2022/09/28 01:56:02;;;;;;;0.00;0.00;;;;;;;;;;7409071;19;20018;-86
2022/09/28 01:58:39;;;;;;;0.20;0.20;;;;;;;;;;7407724;19;20032;-87
2022/09/28 02:01:12;;;;;;;0.20;0.20;;;;;;;;;;7405596;19;20330;-87
2022/09/28 02:03:45;;;;;;;0.17;0.10;;;;;;;;;;7408675;19;20010;-87
2022/09/28 02:06:23;;;;;;;0.95;0.47;;;;;;;;;;7404524;19;20057;-87
2022/09/28 02:08:53;;;;;;;0.90;0.20;;;;;;;;;;7406928;19;20438;-87
2022/09/28 02:11:20;;;;;;;1.85;0.20;;;;;;;;;;7406069;19;20042;-87
2022/09/28 02:14:00;;;;;;;0.10;0.10;;;;;;;;;;7406773;19;20006;-87
2022/09/28 02:16:39;;;;;;;0.50;0.28;;;;;;;;;;7405501;19;19998;-87
2022/09/28 02:19:07;;;;;;;0.63;0.20;;;;;;;;;;7401349;19;20066;-87
2022/09/28 02:21:45;;;;;;;0.35;0.17;;;;;;;;;;7407454;19;20009;-87
2022/09/28 02:24:36;;;;;;;1.00;0.20;;;;;;;;;;7404018;19;19999;-87
2022/09/28 02:27:12;;;;;;;1.17;0.20;;;;;;;;;;7401787;19;20019;-87
2022/09/28 02:29:37;;;;;;;0.90;0.20;;;;;;;;;;7407852;19;20347;-87
2022/09/28 02:32:02;;;;;;;2.25;0.60;;;;;;;;;;7403685;19;20006;-87
2022/09/28 02:34:28;;;;;;;1.10;0.20;;;;;;;;;;7406115;19;20457;-87
2022/09/28 02:36:53;;;;;;;0.10;0.10;;;;;;;;;;7402653;19;20038;-86
2022/09/28 02:39:19;;;;;;;0.65;0.20;;;;;;;;;;7394247;19;20135;-74
2022/09/28 02:41:53;;;;;;;0.20;0.20;;;;;;;;;;7396893;19;19998;-74
2022/09/28 02:44:48;;;;;;;0.28;0.20;;;;;;;;;;7394702;19;20015;-74
2022/09/28 02:47:32;;;;;;;1.25;0.30;;;;;;;;;;7390123;19;20514;-74
2022/09/28 02:50:19;;;;;;;0.22;0.10;;;;;;;;;;7392980;19;20381;-74
2022/09/28 02:53:09;;;;;;;0.40;0.20;;;;;;;;;;7392893;19;20017;-74
2022/09/28 02:55:59;;;;;;;0.73;0.20;;;;;;;;;;7389082;19;20089;-74
2022/09/28 02:58:34;;;;;;;1.13;0.20;;;;;;;;;;7394955;19;20036;-74
2022/09/28 03:01:14;;;;;;;1.27;0.15;;;;;;;;;;7394908;19;20010;-74
2022/09/28 03:04:04;;;;;;;0.68;0.10;;;;;;;;;;7397082;19;19994;-73
2022/09/28 03:06:39;;;;;;;0.22;0.15;;;;;;;;;;7395289;19;20017;-73
2022/09/28 03:09:13;;;;;;;0.10;0.10;;;;;;;;;;7391436;19;20358;-73
2022/09/28 03:11:45;;;;;;;0.00;0.00;;;;;;;;;;7396100;19;20010;-73
2022/09/28 03:14:10;;;;;;;1.52;0.38;;;;;;;;;;7395313;19;20019;-73
2022/09/28 03:16:36;;;;;;;0.38;0.13;;;;;;;;;;7393874;19;20002;-74
2022/09/28 03:19:01;;;;;;;0.75;0.20;;;;;;;;;;7394330;19;20006;-74
2022/09/28 03:21:26;;;;;;;0.47;0.20;;;;;;;;;;7392480;19;19998;-73
2022/09/28 03:23:52;;;;;;;0.80;0.10;;;;;;;;;;7393963;19;20014;-73
2022/09/28 03:26:18;;;;;;;0.30;0.25;;;;;;;;;;7393040;19;20340;-74
2022/09/28 03:28:44;;;;;;;1.17;0.28;;;;;;;;;;7395329;19;20003;-74
2022/09/28 03:31:09;;;;;;;0.95;0.28;;;;;;;;;;7390953;19;20010;-73
2022/09/28 03:33:34;;;;;;;0.55;0.10;;;;;;;;;;7396292;19;20002;-74
2022/09/28 03:36:00;;;;;;;0.93;0.20;;;;;;;;;;7388284;19;19999;-73
2022/09/28 03:38:25;;;;;;;0.13;0.13;;;;;;;;;;7394731;19;20510;-73
2022/09/28 03:41:00;;;;;;;0.45;0.20;;;;;;;;;;7393732;19;20006;-73
2022/09/28 03:43:26;;;;;;;0.73;0.28;;;;;;;;;;7396595;19;20038;-73
2022/09/28 03:45:56;;;;;;;0.43;0.32;;;;;;;;;;7394354;19;20010;-73
2022/09/28 03:48:26;;;;;;;0.30;0.10;;;;;;;;;;7393104;19;20038;-73
2022/09/28 03:50:53;;;;;;;1.13;0.30;;;;;;;;;;7391237;19;20098;-73
2022/09/28 03:53:18;;;;;;;0.88;0.38;;;;;;;;;;7393946;19;20465;-73
2022/09/28 03:55:44;;;;;;;2.05;0.20;;;;;;;;;;7393944;19;20021;-73
2022/09/28 03:58:09;;;;;;;3.38;0.52;;;;;;;;;;7393504;19;20421;-73
2022/09/28 04:00:37;;;;;;;0.50;0.20;;;;;;;;;;7394084;19;20574;-73
2022/09/28 04:03:02;;;;;;;1.75;1.15;;;;;;;;;;7392913;19;20013;-72
2022/09/28 04:05:28;;;;;;;2.00;0.40;;;;;;;;;;7393327;19;20014;-73
2022/09/28 04:07:55;;;;;;;2.17;0.45;;;;;;;;;;7395582;19;20002;-73
2022/09/28 04:10:20;;;;;;;0.52;0.30;;;;;;;;;;7390411;19;20003;-73
2022/09/28 04:12:45;;;;;;;0.25;0.20;;;;;;;;;;7392868;19;20086;-73
2022/09/28 04:15:11;;;;;;;4.13;0.35;;;;;;;;;;7390014;19;20422;-73
2022/09/28 04:17:37;;;;;;;1.70;0.15;;;;;;;;;;7390789;19;20092;-73
2022/09/28 04:20:03;;;;;;;0.38;0.30;;;;;;;;;;7389696;19;20348;-72
2022/09/28 04:22:29;;;;;;;1.40;0.47;;;;;;;;;;7391314;19;20006;-72
2022/09/28 04:24:54;;;;;;;1.48;0.47;;;;;;;;;;7393584;19;20042;-72
2022/09/28 04:30:04;;;;;;;2.38;0.22;;;;;;;;;;7393452;19;20046;-73
2022/09/28 04:32:29;;;;;;;1.27;0.30;;;;;;;;;;7392439;19;20474;-73
2022/09/28 04:34:54;;;;;;;0.98;0.30;;;;;;;;;;7392178;19;20325;-72
2022/09/28 04:37:20;;;;;;;0.47;0.25;;;;;;;;;;7395001;19;20003;-72
2022/09/28 04:39:45;;;;;;;0.32;0.20;;;;;;;;;;7386104;19;19998;-72
2022/09/28 04:42:10;;;;;;;1.23;0.30;;;;;;;;;;7390715;19;20037;-73
2022/09/28 04:44:36;;;;;;;2.38;0.25;;;;;;;;;;7387603;19;20478;-72
2022/09/28 04:47:01;;;;;;;0.30;0.30;;;;;;;;;;7392864;19;20006;-73
2022/09/28 04:49:26;;;;;;;0.63;0.22;;;;;;;;;;7385505;19;20015;-73
2022/09/28 04:51:52;;;;;;;1.13;0.40;;;;;;;;;;7392847;19;20498;-74
2022/09/28 04:54:17;;;;;;;1.50;0.43;;;;;;;;;;7389448;19;19990;-72
2022/09/28 04:56:42;;;;;;;0.40;0.30;;;;;;;;;;7394083;19;20319;-71
2022/09/28 04:59:08;;;;;;;1.08;0.30;;;;;;;;;;7387356;19;20002;-71
2022/09/28 05:01:34;;;;;;;0.43;0.17;;;;;;;;;;7391342;19;20007;-73
2022/09/28 05:03:59;;;;;;;0.55;0.30;;;;;;;;;;7389973;19;20066;-73
2022/09/28 05:06:27;;;;;;;2.63;0.38;;;;;;;;;;7390094;19;20007;-73
2022/09/28 05:08:56;;;;;;;1.58;0.68;;;;;;;;;;7387784;19;20010;-73
2022/09/28 05:11:21;;;;;;;1.30;0.88;;;;;;;;;;7389128;19;20458;-73
2022/09/28 05:13:49;;;;;;;1.58;0.80;;;;;;;;;;7390494;19;20017;-73
2022/09/28 05:16:15;;;;;;;2.33;0.63;;;;;;;;;;7391328;19;20074;-73
2022/09/28 05:18:40;;;;;;;0.65;0.47;;;;;;;;;;7385022;19;20023;-73
2022/09/28 05:21:13;;;;;;;0.93;0.47;;;;;;;;;;7390367;19;20007;-73
2022/09/28 05:23:39;;;;;;;0.82;0.35;;;;;;;;;;7389011;19;20007;-73
2022/09/28 05:26:05;;;;;;;0.20;0.20;;;;;;;;;;7385594;19;20058;-72
2022/09/28 05:28:32;;;;;;;0.68;0.40;;;;;;;;;;7396107;19;21202;-73
2022/09/28 05:31:01;;;;;;;2.70;0.50;;;;;;;;;;7397432;19;20010;-72
2022/09/28 05:33:27;;;;;;;0.35;0.30;;;;;;;;;;7399236;19;20011;-73
2022/09/28 05:35:53;;;;;;;0.77;0.25;;;;;;;;;;7398889;19;20065;-72
2022/09/28 05:38:18;;;;;;;0.73;0.20;;;;;;;;;;7396391;19;20386;-73
2022/09/28 05:40:44;;;;;;;0.77;0.30;;;;;;;;;;7396300;19;20482;-72
2022/09/28 05:43:09;;;;;;;0.38;0.38;;;;;;;;;;7395645;19;20007;-72
2022/09/28 05:45:34;;;;;;;0.90;0.20;;;;;;;;;;7395021;19;20003;-72
2022/09/28 05:48:00;;;;;;;0.60;0.30;;;;;;;;;;7397254;19;20029;-72
2022/09/28 05:50:25;;;;;;;0.30;0.30;;;;;;;;;;7391449;19;20007;-72
2022/09/28 05:55:34;;;;;;;1.30;0.30;;;;;;;;;;7367439;19;20090;-76
2022/09/28 05:58:01;;;;;;;0.20;0.20;;;;;;;;;;7391069;19;20862;-76
2022/09/28 06:00:28;;;;;;;4.00;0.25;;;;;;;;;;7397247;19;20029;-75
2022/09/28 06:03:05;;;;;;;0.85;0.22;;;;;;;;;;7396981;19;20415;-75
2022/09/28 06:05:33;;;;;;;0.30;0.20;;;;;;;;;;7394559;19;20018;-75
2022/09/28 06:07:59;;;;;;;0.55;0.22;;;;;;;;;;7397311;19;20344;-75
2022/09/28 06:10:26;;;;;;;0.13;0.10;;;;;;;;;;7394513;19;20500;-75
2022/09/28 06:12:53;;;;;;;3.10;2.40;;;;;;;;;;7397393;19;20006;-76
2022/09/28 06:15:19;;;;;;;10.90;6.95;;;;;;;;;;7395081;19;20045;-76
2022/09/28 06:17:44;;;;;;;2.35;1.42;;;;;;;;;;7398371;19;20096;-75
2022/09/28 06:20:10;;;;;;;0.40;0.40;;;;;;;;;;7396402;19;20018;-76
2022/09/28 06:22:36;;;;;;;0.28;0.20;;;;;;;;;;7391168;19;20017;-76
2022/09/28 06:25:02;;;;;;;2.90;0.47;;;;;;;;;;7387746;19;20011;-75
2022/09/28 06:27:28;;;;;;;0.60;0.60;;;;;;;;;;7399192;19;20005;-75
2022/09/28 06:29:53;;;;;;;0.65;0.43;;;;;;;;;;7394352;19;20113;-75
2022/09/28 06:32:18;;;;;;;0.60;0.43;;;;;;;;;;7396785;19;20015;-75
2022/09/28 06:34:44;;;;;;;0.20;0.20;;;;;;;;;;7392274;19;20360;-75
2022/09/28 06:37:09;;;;;;;0.30;0.30;;;;;;;;;;7394742;19;20569;-75
2022/09/28 06:39:34;;;;;;;0.63;0.20;;;;;;;;;;7387310;19;20317;-75
2022/09/28 06:42:02;;;;;;;0.22;0.17;;;;;;;;;;7391558;19;20455;-75
2022/09/28 06:44:28;;;;;;;1.27;0.20;;;;;;;;;;7392477;19;20021;-75
2022/09/28 06:46:54;;;;;;;1.25;0.70;;;;;;;;;;7397079;19;20028;-75
2022/09/28 06:49:21;;;;;;;0.25;0.20;;;;;;;;;;7394610;19;20006;-75
2022/09/28 06:51:46;;;;;;;0.30;0.30;;;;;;;;;;7395245;19;20025;-75
2022/09/28 06:54:11;;;;;;;1.25;0.20;;;;;;;;;;7393522;19;20364;-76
2022/09/28 06:56:37;;;;;;;0.55;0.40;;;;;;;;;;7394222;19;20006;-76
2022/09/28 06:59:02;;;;;;;1.23;0.25;;;;;;;;;;7389542;19;20398;-75
2022/09/28 07:01:28;;;;;;;0.28;0.28;;;;;;;;;;7392828;19;20006;-75
2022/09/28 07:03:53;;;;;;;0.25;0.20;;;;;;;;;;7393386;19;20013;-75
2022/09/28 07:06:19;;;;;;;0.65;0.22;;;;;;;;;;7387197;19;20374;-75
2022/09/28 07:08:45;;;;;;;0.68;0.30;;;;;;;;;;7396998;19;20010;-76
2022/09/28 07:11:11;;;;;;;0.20;0.20;;;;;;;;;;7389707;19;20463;-74
2022/09/28 07:13:37;;;;;;;0.73;0.30;;;;;;;;;;7398966;19;20364;-76
2022/09/28 07:16:02;;;;;;;0.43;0.32;;;;;;;;;;7387752;19;20003;-76
2022/09/28 07:18:28;;;;;;;0.70;0.30;;;;;;;;;;7391280;19;20043;-76
2022/09/28 07:20:57;;;;;;;0.70;0.40;;;;;;;;;;7391456;19;20365;-77
2022/09/28 07:23:25;;;;;;;0.38;0.38;;;;;;;;;;7394145;19;20011;-76
2022/09/28 07:25:50;;;;;;;0.50;0.50;;;;;;;;;;7393397;19;20463;-76
2022/09/28 07:28:16;;;;;;;0.77;0.40;;;;;;;;;;7394871;19;20003;-76
2022/09/28 07:30:43;;;;;;;0.20;0.20;;;;;;;;;;7396581;19;19994;-77
2022/09/28 07:33:11;;;;;;;0.80;0.45;;;;;;;;;;7391765;19;20496;-77
2022/09/28 07:35:37;;;;;;;0.40;0.32;;;;;;;;;;7394776;19;19995;-76
2022/09/28 07:38:07;;;;;;;1.58;0.30;;;;;;;;;;7395878;19;20012;-76
2022/09/28 07:43:22;;;;;;;0.20;0.20;;;;;;;;;;7389249;19;20031;-77
2022/09/28 07:45:51;;;;;;;0.17;0.10;;;;;;;;;;7389359;19;20018;-76
2022/09/28 07:48:17;;;;;;;0.30;0.15;;;;;;;;;;7395403;19;20138;-77
2022/09/28 07:50:56;;;;;;;0.30;0.30;;;;;;;;;;7394321;19;20088;-77
2022/09/28 07:53:23;;;;;;;0.70;0.50;;;;;;;;;;7393110;19;20006;-76
2022/09/28 07:55:50;;;;;;;1.20;0.60;;;;;;;;;;7390842;19;20006;-76
2022/09/28 07:58:15;;;;;;;1.33;0.52;;;;;;;;;;7389341;19;20023;-75
2022/09/28 08:00:41;;;;;;;1.33;0.77;;;;;;;;;;7389840;19;20786;-76
2022/09/28 08:03:06;;;;;;;2.05;1.55;;;;;;;;;;7393728;19;20002;-76
2022/09/28 08:05:34;;;;;;;2.20;1.25;;;;;;;;;;7390840;19;20078;-75
2022/09/28 08:08:01;;;;;;;1.98;0.38;;;;;;;;;;7391245;19;20042;-76
2022/09/28 08:10:26;;;;;;;0.80;0.50;;;;;;;;;;7393619;19;20504;-76
2022/09/28 08:12:55;;;;;;;2.55;1.35;;;;;;;;;;7393691;19;20006;-75
2022/09/28 08:15:21;;;;;;;0.73;0.30;;;;;;;;;;7392473;19;20002;-76
2022/09/28 08:17:47;;;;;;;0.10;0.10;;;;;;;;;;7393320;19;20011;-74
2022/09/28 08:23:08;;;;;;;0.50;0.50;;;;;;;;;;7394889;19;20031;-76
2022/09/28 08:25:37;;;;;;;0.52;0.40;;;;;;;;;;7394007;19;20006;-77
2022/09/28 08:28:02;;;;;;;0.55;0.40;;;;;;;;;;7393554;19;20015;-78
2022/09/28 08:30:28;;;;;;;0.20;0.20;;;;;;;;;;7395353;19;20013;-77
2022/09/28 08:32:53;;;;;;;1.05;0.30;;;;;;;;;;7391523;19;20510;-78
2022/09/28 08:35:19;;;;;;;1.23;0.68;;;;;;;;;;7390711;19;20018;-77
2022/09/28 08:37:53;;;;;;;1.20;0.93;;;;;;;;;;7394445;19;20014;-83
2022/09/28 08:40:23;;;;;;;1.75;1.10;;;;;;;;;;7397700;19;20347;-83
2022/09/28 08:42:53;;;;;;;1.00;0.50;;;;;;;;;;7396717;19;20045;-81
2022/09/28 08:45:26;;;;;;;0.40;0.30;;;;;;;;;;7399089;19;20018;-81
2022/09/28 08:50:54;;;;;;;0.85;0.50;;;;;;;;;;7397017;19;20008;-80
2022/09/28 08:53:31;;;;;;;1.52;0.82;;;;;;;;;;7400741;19;20011;-80
2022/09/28 08:56:02;;;;;;;1.05;0.40;;;;;;;;;;7399343;19;20010;-80
2022/09/28 08:58:34;;;;;;;0.52;0.50;;;;;;;;;;7396987;19;20014;-80
2022/09/28 09:01:01;;;;;;;1.13;0.80;;;;;;;;;;7390320;19;20014;-80
2022/09/28 09:03:38;;;;;;;1.02;0.73;;;;;;;;;;7394322;19;20010;-81
2022/09/28 09:06:41;;;;;;;0.80;0.40;;;;;;;;;;7389247;19;20045;-83
2022/09/28 09:09:25;;;;;;;0.30;0.30;;;;;;;;;;7390588;19;20010;-81
2022/09/28 09:12:18;;;;;;;1.60;0.57;;;;;;;;;;7393845;19;20023;-80
2022/09/28 09:15:11;;;;;;;0.43;0.40;;;;;;;;;;7391446;19;20025;-81
2022/09/28 09:17:51;;;;;;;0.35;0.25;;;;;;;;;;7394047;19;20002;-79
2022/09/28 09:20:24;;;;;;;0.93;0.50;;;;;;;;;;7393467;19;20007;-78
2022/09/28 09:23:00;;;;;;;0.40;0.30;;;;;;;;;;7394414;19;20006;-78
2022/09/28 09:25:33;;;;;;;0.80;0.70;;;;;;;;;;7389908;19;20014;-78
2022/09/28 09:28:30;;;;;;;0.20;0.20;;;;;;;;;;7395110;19;20006;-77
2022/09/28 09:31:18;;;;;;;1.35;0.57;;;;;;;;;;7390593;19;19990;-77
2022/09/28 09:33:55;;;;;;;0.30;0.30;;;;;;;;;;7389650;19;20058;-77
2022/09/28 09:36:41;;;;;;;0.55;0.30;;;;;;;;;;7386867;19;20018;-78
2022/09/28 09:39:06;;;;;;;;;;;;;;;;;;7393337;19;20027;-77
2022/09/28 09:41:51;;;;;;;1.17;0.20;;;;;;;;;;7393455;19;19915;-78
2022/09/28 09:44:52;;;;;;;1.93;0.37;;;;;;;;;;7391210;19;20071;-77
2022/09/28 09:47:28;;;;;;;0.25;0.25;;;;;;;;;;7388345;19;20334;-77
2022/09/28 09:50:28;;;;;;;0.50;0.28;;;;;;;;;;7387098;19;20055;-76
2022/09/28 09:53:34;;;;;;;1.55;0.40;;;;;;;;;;7391418;19;20341;-75
2022/09/28 09:56:11;;;;;;;0.52;0.45;;;;;;;;;;7385403;19;20007;-75
2022/09/28 09:58:52;;;;;;;1.15;0.50;;;;;;;;;;7390305;19;20002;-74
2022/09/28 10:01:31;;;;;;;0.82;0.60;;;;;;;;;;7389779;19;20653;-74
2022/09/28 10:03:57;;;;;;;0.70;0.50;;;;;;;;;;7389996;19;20017;-76
2022/09/28 10:06:32;;;;;;;0.88;0.32;;;;;;;;;;7385744;19;20018;-76
2022/09/28 10:09:09;;;;;;;0.30;0.20;;;;;;;;;;7390524;19;20007;-75
2022/09/28 10:11:49;;;;;;;0.43;0.30;;;;;;;;;;7392214;19;19995;-75
2022/09/28 10:14:20;;;;;;;0.28;0.20;;;;;;;;;;7389062;19;20032;-75
2022/09/28 10:16:47;;;;;;;1.42;0.30;;;;;;;;;;7397403;19;20003;-73
2022/09/28 10:19:13;;;;;;;0.60;0.20;;;;;;;;;;7396506;19;20012;-75
2022/09/28 10:21:40;;;;;;;0.57;0.35;;;;;;;;;;7396569;19;20002;-75
2022/09/28 10:24:16;;;;;;;0.82;0.30;;;;;;;;;;7396048;19;20506;-75
2022/09/28 10:26:47;;;;;;;0.28;0.20;;;;;;;;;;7397704;19;20006;-75
2022/09/28 10:29:16;;;;;;;1.15;0.25;;;;;;;;;;7398271;19;20103;-74
2022/09/28 10:31:52;;;;;;;0.52;0.40;;;;;;;;;;7391641;19;20006;-74
2022/09/28 10:34:27;;;;;;;1.08;0.40;;;;;;;;;;7395839;19;20013;-74
2022/09/28 10:37:00;;;;;;;0.28;0.25;;;;;;;;;;7395811;19;20047;-75
2022/09/28 10:39:33;;;;;;;2.38;0.45;;;;;;;;;;7394908;19;20911;-74
2022/09/28 10:42:02;;;;;;;0.50;0.30;;;;;;;;;;7394462;19;20003;-75
2022/09/28 10:44:31;;;;;;;1.50;0.40;;;;;;;;;;7387709;19;20014;-75
2022/09/28 10:47:02;;;;;;;0.88;0.30;;;;;;;;;;7390505;19;20503;-74
2022/09/28 10:49:35;;;;;;;0.20;0.20;;;;;;;;;;7391449;19;20002;-75
2022/09/28 10:52:01;;;;;;;0.80;0.47;;;;;;;;;;7397233;19;20005;-75
2022/09/28 10:54:30;;;;;;;0.70;0.43;;;;;;;;;;7393103;19;20010;-75
2022/09/28 10:56:57;;;;;;;1.85;0.60;;;;;;;;;;7389868;19;20006;-75
2022/09/28 10:59:29;;;;;;;1.05;0.32;;;;;;;;;;7395922;19;20799;-75
2022/09/28 11:02:21;;;;;;;0.55;0.55;;;;;;;;;;7393272;19;20003;-75
2022/09/28 11:04:58;;;;;;;0.55;0.30;;;;;;;;;;7393243;19;20332;-75
2022/09/28 11:07:29;;;;;;;0.70;0.47;;;;;;;;;;7389977;19;20404;-75
2022/09/28 11:09:55;;;;;;;0.20;0.20;;;;;;;;;;7396267;19;20035;-75
2022/09/28 11:12:23;;;;;;;0.68;0.68;;;;;;;;;;7392985;19;20842;-76
2022/09/28 11:14:55;;;;;;;2.63;0.40;;;;;;;;;;7395099;19;20006;-75
2022/09/28 11:17:31;;;;;;;0.68;0.50;;;;;;;;;;7396202;19;20802;-75
2022/09/28 11:20:18;;;;;;;0.52;0.40;;;;;;;;;;7391811;19;20037;-74
2022/09/28 11:22:45;;;;;;;0.55;0.40;;;;;;;;;;7385612;19;20018;-74
2022/09/28 11:25:16;;;;;;;0.90;0.70;;;;;;;;;;7391279;19;20006;-75
2022/09/28 11:27:53;;;;;;;1.27;0.52;;;;;;;;;;7390026;19;20126;-75
2022/09/28 11:30:32;;;;;;;0.60;0.45;;;;;;;;;;7394413;19;20038;-74
2022/09/28 11:33:13;;;;;;;0.32;0.30;;;;;;;;;;7395974;19;20491;-75
2022/09/28 11:35:50;;;;;;;1.13;0.50;;;;;;;;;;7393807;19;20027;-74
2022/09/28 11:38:39;;;;;;;1.55;0.57;;;;;;;;;;7393620;19;20114;-75
2022/09/28 11:41:25;;;;;;;5.20;0.50;;;;;;;;;;7394867;19;19991;-75
2022/09/28 11:44:11;;;;;;;0.52;0.40;;;;;;;;;;7390709;19;20032;-75
2022/09/28 11:46:58;;;;;;;2.00;0.60;;;;;;;;;;7386724;19;20069;-77
2022/09/28 11:49:34;;;;;;;0.65;0.50;;;;;;;;;;7394282;19;20015;-74
2022/09/28 11:52:07;;;;;;;0.77;0.50;;;;;;;;;;7391207;19;20006;-75
2022/09/28 11:54:53;;;;;;;1.00;0.77;;;;;;;;;;7392277;19;20002;-75
2022/09/28 11:57:24;;;;;;;0.93;0.73;;;;;;;;;;7393200;19;20006;-75
2022/09/28 11:59:57;;;;;;;0.60;0.50;;;;;;;;;;7387310;19;20010;-75
2022/09/28 12:02:33;;;;;;;0.30;0.30;;;;;;;;;;7393352;19;20015;-75
2022/09/28 12:05:14;;;;;;;1.50;0.77;;;;;;;;;;7392985;19;20003;-75
2022/09/28 12:07:48;;;;;;;3.15;0.77;;;;;;;;;;7393836;19;20013;-75
2022/09/28 12:10:20;;;;;;;1.50;0.70;;;;;;;;;;7392542;19;19998;-75
2022/09/28 12:13:09;;;;;;;1.02;0.70;;;;;;;;;;7392035;19;20009;-75
2022/09/28 12:15:48;;;;;;;0.40;0.32;;;;;;;;;;7388679;19;20006;-75
2022/09/28 12:18:28;;;;;;;1.63;0.50;;;;;;;;;;7391903;19;19998;-75
2022/09/28 12:21:06;;;;;;;1.13;0.70;;;;;;;;;;7389767;19;20080;-76
2022/09/28 12:23:38;;;;;;;0.75;0.57;;;;;;;;;;7392990;19;20360;-76
2022/09/28 12:26:27;;;;;;;1.25;0.60;;;;;;;;;;7389168;19;20035;-75
2022/09/28 12:28:58;;;;;;;1.10;0.88;;;;;;;;;;7391519;19;20002;-76
2022/09/28 12:31:30;;;;;;;1.25;0.60;;;;;;;;;;7389470;19;20007;-76
2022/09/28 12:33:56;;;;;;;1.90;0.80;;;;;;;;;;7393360;19;19998;-76
2022/09/28 12:36:29;;;;;;;1.05;0.63;;;;;;;;;;7385761;19;20334;-76
2022/09/28 12:39:32;;;;;;;1.15;0.50;;;;;;;;;;7392424;19;20011;-76
2022/09/28 12:42:15;;;;;;;0.57;0.50;;;;;;;;;;7391417;19;20035;-76
2022/09/28 12:44:56;;;;;;;0.93;0.63;;;;;;;;;;7393493;19;20013;-76
2022/09/28 12:47:36;;;;;;;0.68;0.60;;;;;;;;;;7392040;19;20010;-76
2022/09/28 12:50:16;;;;;;;3.00;0.63;;;;;;;;;;7393475;19;20403;-76
2022/09/28 12:52:49;;;;;;;1.05;0.50;;;;;;;;;;7390799;19;20003;-75
2022/09/28 12:55:34;;;;;;;1.65;0.60;;;;;;;;;;7391244;19;20074;-76
2022/09/28 12:58:11;;;;;;;2.25;0.70;;;;;;;;;;7391244;19;20110;-76
2022/09/28 13:00:48;;;;;;;1.27;0.60;;;;;;;;;;7391839;19;20106;-76
2022/09/28 13:03:44;;;;;;;1.63;0.60;;;;;;;;;;7388721;19;20482;-76
2022/09/28 13:06:18;;;;;;;1.70;0.50;;;;;;;;;;7388213;19;20003;-76
2022/09/28 13:09:21;;;;;;;5.93;0.93;;;;;;;;;;7387048;19;20015;-76
2022/09/28 13:12:05;;;;;;;1.10;0.50;;;;;;;;;;7390802;19;20026;-76
2022/09/28 13:14:52;;;;;;;0.40;0.40;;;;;;;;;;7389998;19;20154;-75
2022/09/28 13:17:49;;;;;;;0.85;0.60;;;;;;;;;;7383213;19;20015;-76
2022/09/28 13:20:45;;;;;;;0.40;0.40;;;;;;;;;;7388529;19;20007;-75
2022/09/28 13:23:20;;;;;;;1.23;0.43;;;;;;;;;;7387660;19;20062;-76
2022/09/28 13:26:38;;;;;;;0.35;0.35;;;;;;;;;;7386910;19;20035;-76
2022/09/28 13:29:10;;;;;;;3.13;0.88;;;;;;;;;;7389928;19;20010;-74
2022/09/28 13:31:44;;;;;;;0.52;0.35;;;;;;;;;;7392468;19;20126;-77
2022/09/28 13:34:19;;;;;;;1.50;0.50;;;;;;;;;;7379844;19;20961;-76
2022/09/28 13:36:45;;;;;;;0.50;0.47;;;;;;;;;;7388185;19;20365;-76
2022/09/28 13:39:34;;;;;;;3.67;0.63;;;;;;;;;;7388376;19;20003;-75
2022/09/28 13:41:59;;;;;;;2.10;0.60;;;;;;;;;;7389302;19;20039;-74
2022/09/28 13:44:53;;;;;;;2.35;0.50;;;;;;;;;;7390326;19;20014;-74
2022/09/28 13:47:43;;;;;;;2.08;0.60;;;;;;;;;;7389602;19;20051;-74
2022/09/28 13:50:33;;;;;;;0.65;0.60;;;;;;;;;;7397002;19;20035;-74
2022/09/28 13:53:35;;;;;;;0.95;0.60;;;;;;;;;;7395535;19;20019;-74
2022/09/28 13:56:29;;;;;;;1.00;0.80;;;;;;;;;;7390685;19;20021;-74
2022/09/28 13:59:20;;;;;;;0.68;0.60;;;;;;;;;;7398826;19;20045;-75
2022/09/28 14:01:51;;;;;;;1.83;0.70;;;;;;;;;;7400105;19;20006;-75
2022/09/28 14:04:19;;;;;;;0.63;0.50;;;;;;;;;;7395471;19;20034;-75
2022/09/28 14:06:58;;;;;;;1.48;0.47;;;;;;;;;;7397048;19;20045;-75
2022/09/28 14:09:38;;;;;;;1.60;0.65;;;;;;;;;;7393478;19;20119;-75
2022/09/28 14:12:43;;;;;;;1.35;0.60;;;;;;;;;;7397468;19;20363;-75
2022/09/28 14:15:29;;;;;;;0.45;0.40;;;;;;;;;;7396249;19;20014;-74
2022/09/28 14:18:07;;;;;;;1.67;0.70;;;;;;;;;;7394525;19;20010;-75
2022/09/28 14:20:33;;;;;;;0.60;0.52;;;;;;;;;;7396893;19;20033;-74
2022/09/28 14:23:13;;;;;;;0.47;0.40;;;;;;;;;;7394677;19;20017;-75
2022/09/28 14:26:10;;;;;;;0.45;0.45;;;;;;;;;;7391412;19;20029;-74
2022/09/28 14:28:35;;;;;;;;;;;;;;;;;;7398868;19;20028;-74
2022/09/28 14:31:08;;;;;;;0.98;0.65;;;;;;;;;;7396994;19;20352;-74
2022/09/28 14:33:34;;;;;;;1.83;0.60;;;;;;;;;;7399777;19;20018;-74
2022/09/28 14:36:05;;;;;;;1.73;0.80;;;;;;;;;;7395063;19;20035;-74
2022/09/28 14:41:30;;;;;;;2.05;0.60;;;;;;;;;;7396870;19;20009;-74
2022/09/28 14:44:01;;;;;;;1.50;0.60;;;;;;;;;;7398146;19;20006;-74
2022/09/28 14:46:33;;;;;;;2.38;0.73;;;;;;;;;;7395671;19;20010;-74
2022/09/28 14:49:02;;;;;;;0.77;0.50;;;;;;;;;;7394127;19;20017;-75
2022/09/28 14:51:29;;;;;;;1.13;0.80;;;;;;;;;;7395266;19;20033;-74
2022/09/28 14:54:02;;;;;;;2.78;0.60;;;;;;;;;;7396995;19;20041;-74
2022/09/28 14:56:32;;;;;;;1.55;0.68;;;;;;;;;;7395845;19;20398;-75
2022/09/28 14:58:59;;;;;;;1.52;0.77;;;;;;;;;;7394434;19;20010;-73
2022/09/28 15:01:25;;;;;;;1.15;0.65;;;;;;;;;;7394489;19;20130;-75
2022/09/28 15:03:57;;;;;;;0.40;0.40;;;;;;;;;;7396211;19;20371;-73
2022/09/28 15:06:24;;;;;;;2.00;0.68;;;;;;;;;;7396105;19;20018;-74
2022/09/28 15:08:50;;;;;;;0.70;0.50;;;;;;;;;;7391412;19;20023;-74
2022/09/28 15:11:24;;;;;;;1.50;0.73;;;;;;;;;;7394829;19;20007;-75
2022/09/28 15:13:54;;;;;;;2.53;0.70;;;;;;;;;;7396700;19;20002;-74
2022/09/28 15:16:22;;;;;;;1.05;0.60;;;;;;;;;;7393845;19;20401;-76
2022/09/28 15:19:38;;;;;;;3.22;0.60;;;;;;;;;;7397764;19;20027;-75
2022/09/28 15:22:13;;;;;;;1.30;0.70;;;;;;;;;;7390892;19;21783;-74
2022/09/28 15:24:44;;;;;;;0.93;0.60;;;;;;;;;;7391061;19;20038;-74
2022/09/28 15:27:15;;;;;;;1.55;0.85;;;;;;;;;;7393084;19;20017;-74
2022/09/28 15:29:40;;;;;;;0.95;0.60;;;;;;;;;;7395028;19;20010;-74
2022/09/28 15:32:22;;;;;;;1.83;0.77;;;;;;;;;;7397820;19;20586;-74
2022/09/28 15:34:50;;;;;;;0.68;0.68;;;;;;;;;;7396077;19;20332;-73
2022/09/28 15:37:34;;;;;;;1.90;1.08;;;;;;;;;;7395973;19;20086;-74